Time;durP1;ratioP1;P1;durP2;ratioP2;P2;SDS_P1;SDS_P2;PMS_P1;PMS_P2;Temp;Humidity;BMP_temperature;BMP_pressure;BME280_temperature;BME280_humidity;BME280_pressure;Samples;Min_cycle;Max_cycle;Signal;HPM_P1;HPM_P2
2022/03/10 00:02:46;;;;;;;19.50;10.05;;;1.80;90.30;;;;;;4904783;29;20039;-91
2022/03/10 00:05:36;;;;;;;18.92;10.93;;;2.50;90.20;;;;;;4904855;29;20043;-91
2022/03/10 00:08:34;;;;;;;16.87;10.17;;;1.20;90.80;;;;;;4905195;29;20072;-91
2022/03/10 00:11:19;;;;;;;17.67;11.13;;;1.30;91.20;;;;;;4904614;29;20043;-90
2022/03/10 00:14:12;;;;;;;17.83;10.90;;;0.40;90.50;;;;;;4904755;29;20043;-90
2022/03/10 00:17:05;;;;;;;12.63;8.20;;;0.40;90.50;;;;;;4893041;29;20047;-90
2022/03/10 00:20:01;;;;;;;18.42;10.70;;;2.00;90.20;;;;;;4891644;29;20408;-91
2022/03/10 00:22:55;;;;;;;20.63;11.93;;;3.50;91.60;;;;;;4892247;29;20103;-92
2022/03/10 00:28:47;;;;;;;16.85;10.82;;;2.80;91.40;;;;;;4905757;29;20502;-91
2022/03/10 00:31:34;;;;;;;23.93;11.53;;;1.20;90.10;;;;;;4903743;29;20509;-93
2022/03/10 00:34:21;;;;;;;16.30;10.47;;;2.30;91.00;;;;;;4904130;29;20067;-91
2022/03/10 00:37:08;;;;;;;16.93;10.70;;;2.00;90.80;;;;;;4904320;29;20092;-91
2022/03/10 00:39:53;;;;;;;17.63;10.70;;;2.20;91.30;;;;;;4904119;29;20055;-92
2022/03/10 00:42:55;;;;;;;18.83;10.87;;;3.20;92.10;;;;;;4903980;29;20066;-91
2022/03/10 00:45:49;;;;;;;21.43;10.83;;;3.00;92.30;;;;;;4888767;29;20034;-91
2022/03/10 00:48:41;;;;;;;19.00;10.82;;;0.40;91.00;;;;;;4903823;29;20043;-91
2022/03/10 00:51:28;;;;;;;18.73;11.10;;;3.20;91.70;;;;;;4904055;29;20051;-91
2022/03/10 00:54:13;;;;;;;18.97;12.10;;;1.90;92.40;;;;;;4896896;29;20405;-91
2022/03/10 00:57:03;;;;;;;22.77;12.83;;;0.80;91.90;;;;;;4878990;29;20075;-91
2022/03/10 00:59:48;;;;;;;22.57;13.53;;;0.80;92.40;;;;;;4888502;29;20047;-92
2022/03/10 01:02:40;;;;;;;22.23;13.63;;;2.80;92.40;;;;;;4903349;29;20064;-93
2022/03/10 01:05:33;;;;;;;19.43;12.13;;;2.40;92.00;;;;;;4891087;29;20043;-91
2022/03/10 01:08:21;;;;;;;22.63;12.63;;;2.80;92.30;;;;;;4890817;29;20099;-93
2022/03/10 01:11:11;;;;;;;17.80;11.10;;;0.90;92.10;;;;;;4879085;29;20095;-93
2022/03/10 01:13:58;;;;;;;21.50;11.03;;;0.60;93.20;;;;;;4903008;29;20445;-91
2022/03/10 01:16:47;;;;;;;18.57;11.23;;;0.70;92.60;;;;;;4903344;29;20088;-92
2022/03/10 01:19:49;;;;;;;18.50;10.97;;;1.90;92.70;;;;;;4877976;29;20042;-92
2022/03/10 01:22:35;;;;;;;17.50;10.93;;;2.70;93.00;;;;;;4882341;29;20070;-91
2022/03/10 01:25:25;;;;;;;18.70;10.93;;;1.90;93.00;;;;;;4903506;29;20043;-92
2022/03/10 01:28:19;;;;;;;16.70;11.20;;;-0.90;91.80;;;;;;4903519;29;20039;-93
2022/03/10 01:31:07;;;;;;;20.25;10.95;;;1.00;93.00;;;;;;4903914;29;20516;-91
2022/03/10 01:33:54;;;;;;;19.50;11.57;;;0.50;93.40;;;;;;4889598;29;20047;-92
2022/03/10 01:36:41;;;;;;;17.45;10.50;;;0.70;92.40;;;;;;4903129;29;20095;-93
2022/03/10 01:39:30;;;;;;;16.63;10.20;;;2.60;94.00;;;;;;4892688;29;20063;-91
2022/03/10 01:42:18;;;;;;;18.77;11.80;;;0.80;93.90;;;;;;4890780;29;20676;-91
2022/03/10 01:45:05;;;;;;;22.70;13.03;;;0.90;93.50;;;;;;4890212;29;20051;-93
2022/03/10 01:48:01;;;;;;;25.93;12.87;;;0.50;93.90;;;;;;4902729;29;20067;-91
2022/03/10 01:50:51;;;;;;;20.37;12.60;;;0.90;94.00;;;;;;4902991;29;20123;-92
2022/03/10 01:53:53;;;;;;;;;;;;;;;;;;;;;
2022/03/10 01:56:41;;;;;;;20.63;13.10;;;2.10;93.80;;;;;;4917728;29;20043;-92
2022/03/10 01:59:36;;;;;;;22.47;11.93;;;2.30;93.70;;;;;;4890940;29;20052;-92
2022/03/10 02:02:31;;;;;;;22.67;10.57;;;-0.40;93.80;;;;;;4903174;29;20051;-91
2022/03/10 02:05:25;;;;;;;;;;;;;;;;;;;;;
2022/03/10 02:11:16;;;;;;;20.73;11.43;;;0.00;93.40;;;;;;4917406;29;20472;-91
2022/03/10 02:17:19;;;;;;;20.77;11.60;;;-0.60;92.80;;;;;;4903784;29;20453;-92
2022/03/10 02:17:25;;;;;;;19.10;10.40;;;2.20;94.10;;;;;;4911276;29;20115;-92
2022/03/10 02:20:15;;;;;;;21.43;11.30;;;1.80;94.00;;;;;;4902683;29;20049;-90
2022/03/10 02:23:09;;;;;;;17.00;10.83;;;0.60;94.40;;;;;;4889535;29;20055;-92
2022/03/10 02:26:00;;;;;;;18.08;12.02;;;0.70;94.70;;;;;;4902429;29;20039;-92
2022/03/10 02:28:49;;;;;;;19.33;11.87;;;1.90;94.10;;;;;;4889782;29;20118;-92
2022/03/10 02:31:36;;;;;;;19.20;11.07;;;0.40;93.90;;;;;;4902528;29;20103;-91
2022/03/10 02:34:24;;;;;;;17.27;11.00;;;1.20;94.40;;;;;;4902876;29;20059;-91
2022/03/10 02:37:19;;;;;;;22.73;11.67;;;1.20;95.20;;;;;;4902643;29;20123;-92
2022/03/10 02:40:18;;;;;;;29.07;11.57;;;2.20;94.80;;;;;;4916096;29;20507;-91
2022/03/10 02:43:06;;;;;;;18.70;11.00;;;0.40;94.60;;;;;;4902330;29;20035;-91
2022/03/10 02:45:55;;;;;;;19.57;11.73;;;2.60;95.60;;;;;;4902399;29;20043;-92
2022/03/10 02:48:44;;;;;;;18.07;11.00;;;1.30;95.20;;;;;;4902614;29;20123;-93
2022/03/10 02:51:29;;;;;;;24.53;11.60;;;1.40;95.50;;;;;;4902582;29;20051;-91
2022/03/10 02:54:24;;;;;;;;;;;;;;;;;;;;;
2022/03/10 02:57:12;;;;;;;19.60;11.37;;;0.20;96.20;;;;;;4916405;29;20044;-91
2022/03/10 03:00:03;;;;;;;17.93;11.87;;;1.10;95.90;;;;;;4873075;29;20039;-92
2022/03/10 03:02:51;;;;;;;23.77;12.47;;;0.90;96.00;;;;;;4902605;29;20124;-92
2022/03/10 03:05:40;;;;;;;19.37;11.37;;;1.70;96.70;;;;;;4902405;29;20043;-91
2022/03/10 03:08:24;;;;;;;18.43;11.43;;;1.30;96.20;;;;;;4902934;29;20123;-92
2022/03/10 03:11:12;;;;;;;17.83;11.67;;;0.30;96.10;;;;;;4877486;29;20062;-92
2022/03/10 03:14:01;;;;;;;18.90;10.93;;;0.30;96.40;;;;;;4902249;29;20059;-91
2022/03/10 03:16:50;;;;;;;23.37;12.27;;;1.70;96.40;;;;;;4902548;29;20551;-91
2022/03/10 03:19:42;;;;;;;18.37;10.93;;;1.80;96.60;;;;;;4889912;29;20104;-92
2022/03/10 03:22:30;;;;;;;17.70;11.50;;;1.40;97.00;;;;;;4883570;29;20086;-93
2022/03/10 03:25:18;;;;;;;17.90;10.77;;;0.20;96.20;;;;;;4894114;29;20059;-93
2022/03/10 03:28:05;;;;;;;18.87;10.97;;;0.20;96.10;;;;;;4906242;29;20066;-91
2022/03/10 03:31:01;;;;;;;23.47;11.40;;;0.10;96.10;;;;;;4892820;29;20051;-91
2022/03/10 03:33:50;;;;;;;17.73;10.90;;;1.90;96.70;;;;;;4905817;29;20047;-91
2022/03/10 03:36:43;;;;;;;22.50;12.10;;;0.30;96.10;;;;;;4906132;29;20496;-91
2022/03/10 03:39:32;;;;;;;22.07;11.87;;;0.00;96.50;;;;;;4905691;29;20063;-90
2022/03/10 03:42:20;;;;;;;17.37;10.80;;;0.40;96.40;;;;;;4879220;29;20054;-90
2022/03/10 03:45:09;;;;;;;20.63;10.90;;;0.20;96.10;;;;;;4905772;29;20104;-90
2022/03/10 03:48:01;;;;;;;18.43;10.50;;;0.20;95.50;;;;;;4905437;29;20043;-91
2022/03/10 03:50:45;;;;;;;19.27;11.53;;;2.50;96.20;;;;;;4905326;29;20087;-91
2022/03/10 03:53:30;;;;;;;20.70;11.20;;;2.50;96.40;;;;;;4908086;29;20039;-92
2022/03/10 03:56:15;;;;;;;18.17;10.60;;;1.90;96.00;;;;;;4891984;29;20120;-92
2022/03/10 03:59:00;;;;;;;19.47;11.20;;;1.70;95.40;;;;;;4888987;29;20039;-91
2022/03/10 04:01:46;;;;;;;18.70;11.93;;;2.40;95.60;;;;;;4906699;29;20078;-92
2022/03/10 04:04:33;;;;;;;17.90;10.03;;;2.70;95.20;;;;;;4905950;29;20110;-92
2022/03/10 04:07:20;;;;;;;17.93;11.07;;;2.20;95.00;;;;;;4891958;29;20127;-92
2022/03/10 04:10:09;;;;;;;21.53;11.07;;;1.50;94.70;;;;;;4892113;29;20087;-92
2022/03/10 04:13:05;;;;;;;16.70;10.60;;;-0.30;94.10;;;;;;4905364;29;20106;-91
2022/03/10 04:15:53;;;;;;;17.17;11.23;;;0.60;94.60;;;;;;4899422;29;20548;-93
2022/03/10 04:18:38;;;;;;;17.13;10.57;;;1.90;94.50;;;;;;4890916;29;20083;-93
2022/03/10 04:21:22;;;;;;;21.70;12.30;;;1.60;95.00;;;;;;4904686;29;20051;-91
2022/03/10 04:24:07;;;;;;;19.73;10.60;;;0.70;94.60;;;;;;4904609;29;20068;-91
2022/03/10 04:26:55;;;;;;;20.37;11.43;;;0.70;94.40;;;;;;4891054;29;20457;-91
2022/03/10 04:29:39;;;;;;;19.40;10.83;;;2.10;94.50;;;;;;4904763;29;20115;-93
2022/03/10 04:32:27;;;;;;;20.37;11.37;;;2.70;94.70;;;;;;4903188;29;20048;-92
2022/03/10 04:35:17;;;;;;;17.20;10.23;;;1.00;93.90;;;;;;4904562;29;20039;-92
2022/03/10 04:38:07;;;;;;;19.40;10.77;;;1.70;94.00;;;;;;4903589;29;20047;-92
2022/03/10 04:40:52;;;;;;;17.40;10.53;;;1.70;94.10;;;;;;4903940;29;20548;-92
2022/03/10 04:43:39;;;;;;;16.63;9.47;;;1.10;93.60;;;;;;4904026;29;20039;-92
2022/03/10 04:46:29;;;;;;;17.80;10.47;;;0.30;93.20;;;;;;4903539;29;20095;-93
2022/03/10 04:49:13;;;;;;;18.43;11.00;;;2.50;94.10;;;;;;4903769;29;20503;-93
2022/03/10 04:52:03;;;;;;;16.53;10.57;;;2.80;93.50;;;;;;4896606;29;20115;-91
2022/03/10 04:54:50;;;;;;;16.83;10.10;;;2.20;93.70;;;;;;4890937;29;20039;-91
2022/03/10 04:57:41;;;;;;;16.83;10.37;;;3.00;93.50;;;;;;4903896;29;20035;-92
2022/03/10 05:00:34;;;;;;;21.87;11.17;;;0.20;92.20;;;;;;4903439;29;20147;-91
2022/03/10 05:03:33;;;;;;;18.73;11.07;;;1.80;92.80;;;;;;4893568;29;20548;-91
2022/03/10 05:06:22;;;;;;;16.93;10.97;;;2.60;93.20;;;;;;4903186;29;20491;-92
2022/03/10 05:09:11;;;;;;;21.53;10.33;;;2.10;93.40;;;;;;4894414;29;20039;-92
2022/03/10 05:12:03;;;;;;;18.33;9.50;;;2.30;93.60;;;;;;4890410;29;20537;-92
2022/03/10 05:14:51;;;;;;;16.77;10.38;;;1.00;92.80;;;;;;4903339;29;20071;-92
2022/03/10 05:17:38;;;;;;;18.13;10.53;;;1.30;93.20;;;;;;4903782;29;20540;-91
2022/03/10 05:20:25;;;;;;;16.53;10.93;;;2.00;93.00;;;;;;4891132;29;20055;-93
2022/03/10 05:23:12;;;;;;;15.60;10.13;;;1.00;93.00;;;;;;4895083;29;20111;-91
2022/03/10 05:25:59;;;;;;;17.60;10.53;;;2.60;93.00;;;;;;4903235;29;20046;-91
2022/03/10 05:29:05;;;;;;;19.30;9.97;;;2.90;93.70;;;;;;4903145;29;20073;-91
2022/03/10 05:31:51;;;;;;;18.00;10.60;;;2.80;93.30;;;;;;4896434;29;20075;-90
2022/03/10 05:34:36;;;;;;;19.80;10.10;;;2.70;93.40;;;;;;4903284;29;20039;-92
2022/03/10 05:37:26;;;;;;;17.47;10.90;;;-0.60;92.80;;;;;;4902687;29;20123;-92
2022/03/10 05:40:23;;;;;;;16.20;9.93;;;1.70;93.50;;;;;;4902005;29;20055;-92
2022/03/10 05:43:16;;;;;;;19.77;11.00;;;1.40;93.30;;;;;;4897033;29;20080;-91
2022/03/10 05:46:05;;;;;;;21.50;11.37;;;0.50;92.70;;;;;;4896777;29;20100;-92
2022/03/10 05:48:53;;;;;;;17.63;10.37;;;0.80;93.60;;;;;;4890386;29;20078;-91
2022/03/10 05:51:48;;;;;;;;;;;;;;;;;;;;;
2022/03/10 05:54:36;;;;;;;18.13;10.40;;;0.70;93.70;;;;;;4902520;29;20496;-91
2022/03/10 05:57:26;;;;;;;16.47;9.97;;;0.70;93.50;;;;;;4902687;29;20123;-93
2022/03/10 06:00:13;;;;;;;18.17;10.80;;;2.00;94.40;;;;;;4899920;29;20055;-93
2022/03/10 06:03:06;;;;;;;19.67;10.13;;;0.70;93.50;;;;;;4892593;29;20095;-91
2022/03/10 06:06:05;;;;;;;18.30;10.87;;;0.80;93.10;;;;;;4902965;29;20123;-91
2022/03/10 06:12:46;;;;;;;16.33;9.68;;;2.00;93.80;;;;;;4906747;29;20047;-92
2022/03/10 06:15:46;;;;;;;;;;;;;;;;;;;;;
2022/03/10 06:18:31;;;;;;;21.80;12.10;;;0.70;93.00;;;;;;4900302;29;20516;-90
2022/03/10 06:21:18;;;;;;;17.90;11.57;;;0.70;93.50;;;;;;4884082;29;20051;-93
2022/03/10 06:24:05;;;;;;;17.17;10.67;;;1.40;93.60;;;;;;4875684;29;20083;-93
2022/03/10 06:26:52;;;;;;;19.20;11.03;;;0.80;93.50;;;;;;4880472;29;20088;-90
2022/03/10 06:29:43;;;;;;;18.20;10.67;;;1.00;93.30;;;;;;4885234;29;20043;-90
2022/03/10 06:32:46;;;;;;;18.10;12.13;;;1.00;93.70;;;;;;4883420;29;20052;-90
2022/03/10 06:35:32;;;;;;;18.17;10.97;;;1.00;93.20;;;;;;4880481;29;20108;-90
2022/03/10 06:38:23;;;;;;;20.43;11.20;;;1.00;94.00;;;;;;4880056;29;20057;-92
2022/03/10 06:41:15;;;;;;;20.67;10.80;;;1.00;94.00;;;;;;4885268;29;20192;-90
2022/03/10 06:44:00;;;;;;;17.70;11.53;;;2.80;93.80;;;;;;4884416;29;20115;-90
2022/03/10 06:46:48;;;;;;;18.77;11.30;;;3.40;94.50;;;;;;4879304;29;20039;-91
2022/03/10 06:49:33;;;;;;;21.37;11.03;;;1.80;93.60;;;;;;4880340;29;20036;-89
2022/03/10 06:52:19;;;;;;;18.87;11.23;;;1.30;93.80;;;;;;4881262;29;20454;-92
2022/03/10 06:55:06;;;;;;;22.37;10.23;;;1.30;93.40;;;;;;4881044;29;20039;-89
2022/03/10 06:57:59;;;;;;;22.43;11.57;;;1.40;93.30;;;;;;4885778;29;20519;-92
2022/03/10 07:00:52;;;;;;;19.77;10.75;;;1.80;93.50;;;;;;4897359;29;20047;-91
2022/03/10 07:03:36;;;;;;;19.57;10.73;;;2.40;93.70;;;;;;4887423;29;20091;-91
2022/03/10 07:06:29;;;;;;;21.17;11.67;;;2.40;93.60;;;;;;4888969;29;20035;-92
2022/03/10 07:09:18;;;;;;;20.10;11.60;;;3.10;93.30;;;;;;4885466;29;20036;-90
2022/03/10 07:12:07;;;;;;;19.92;10.73;;;2.80;93.00;;;;;;4886480;29;20040;-91
2022/03/10 07:14:52;;;;;;;17.23;11.25;;;2.10;92.70;;;;;;4891003;29;20120;-91
2022/03/10 07:17:38;;;;;;;17.40;11.23;;;3.60;93.10;;;;;;4880012;29;20083;-87
2022/03/10 07:20:23;;;;;;;16.95;9.93;;;3.20;92.50;;;;;;4898487;29;20050;-90
2022/03/10 07:23:16;;;;;;;19.70;10.20;;;2.60;92.40;;;;;;4905029;29;20453;-91
2022/03/10 07:26:01;;;;;;;17.73;10.68;;;2.70;92.40;;;;;;4885222;29;20047;-88
2022/03/10 07:28:46;;;;;;;19.33;9.27;;;3.30;92.00;;;;;;4904741;29;20086;-88
2022/03/10 07:31:31;;;;;;;16.50;9.90;;;4.20;92.10;;;;;;4885206;29;20043;-88
2022/03/10 07:34:18;;;;;;;16.13;9.65;;;2.00;91.40;;;;;;4892475;29;20508;-94
2022/03/10 07:37:02;;;;;;;16.60;10.10;;;3.90;92.30;;;;;;4901195;29;20087;-87
2022/03/10 07:39:52;;;;;;;21.33;12.77;;;5.10;91.60;;;;;;4877917;29;20071;-89
2022/03/10 07:42:44;;;;;;;18.75;11.90;;;6.40;88.00;;;;;;4892018;29;20127;-89
2022/03/10 07:45:29;;;;;;;19.55;11.63;;;7.60;83.00;;;;;;4875765;29;20039;-88
2022/03/10 07:48:14;;;;;;;18.42;11.88;;;8.40;79.10;;;;;;4904379;29;20047;-88
2022/03/10 07:50:59;;;;;;;18.95;11.20;;;9.20;75.30;;;;;;4918542;29;20461;-88
2022/03/10 07:53:46;;;;;;;17.48;11.02;;;9.90;73.00;;;;;;4891125;29;20040;-88
2022/03/10 07:56:31;;;;;;;18.92;12.95;;;10.60;71.40;;;;;;4903963;29;20515;-89
2022/03/10 07:59:15;;;;;;;18.50;11.57;;;10.30;67.30;;;;;;4917475;29;20537;-88
2022/03/10 08:01:59;;;;;;;19.73;10.75;;;11.40;65.50;;;;;;4893148;29;20508;-88
2022/03/10 08:04:43;;;;;;;;;;;11.90;62.90;;;;;;4873702;29;20043;-88
2022/03/10 08:07:32;;;;;;;16.65;11.18;;;12.10;61.30;;;;;;4883899;29;19953;-89
2022/03/10 08:10:20;;;;;;;20.13;11.65;;;12.10;61.00;;;;;;4915067;29;20068;-88
2022/03/10 08:13:04;;;;;;;16.70;11.25;;;11.90;61.60;;;;;;4898323;29;20096;-86
2022/03/10 08:15:51;;;;;;;;;;;11.30;59.50;;;;;;4890489;29;20046;-87
2022/03/10 08:18:35;;;;;;;17.83;11.82;;;10.70;58.90;;;;;;4896499;29;19918;-88
2022/03/10 08:21:20;;;;;;;17.83;11.27;;;10.10;62.70;;;;;;4898050;29;20056;-87
2022/03/10 08:24:08;;;;;;;15.65;10.68;;;9.60;63.30;;;;;;4847941;29;20482;-88
2022/03/10 08:26:52;;;;;;;20.23;12.07;;;9.30;63.90;;;;;;4884727;29;20488;-87
2022/03/10 08:29:37;;;;;;;19.73;11.88;;;9.90;65.60;;;;;;4884987;29;20099;-88
2022/03/10 08:32:25;;;;;;;18.00;11.80;;;9.20;64.90;;;;;;4886355;29;20454;-88
2022/03/10 08:35:10;;;;;;;17.10;11.10;;;9.30;64.00;;;;;;4885171;29;20434;-87
2022/03/10 08:37:55;;;;;;;19.30;11.07;;;9.60;63.20;;;;;;4903368;29;20114;-86
2022/03/10 08:40:39;;;;;;;17.77;12.40;;;9.80;63.30;;;;;;4903130;29;20087;-86
2022/03/10 08:43:28;;;;;;;21.23;12.05;;;9.70;63.30;;;;;;4900489;29;20047;-86
2022/03/10 08:46:12;;;;;;;16.67;11.38;;;9.50;63.80;;;;;;4869327;29;20059;-87
2022/03/10 08:48:57;;;;;;;17.42;11.20;;;9.20;66.10;;;;;;4903726;29;20453;-88
2022/03/10 08:51:41;;;;;;;;;;;9.10;65.40;;;;;;4890724;29;20408;-88
2022/03/10 08:54:27;;;;;;;16.63;11.27;;;9.20;66.10;;;;;;4900107;29;19943;-87
2022/03/10 08:57:12;;;;;;;16.75;10.93;;;9.40;67.40;;;;;;4895158;29;20051;-87
2022/03/10 08:59:57;;;;;;;16.92;11.10;;;9.60;65.10;;;;;;4892751;29;20044;-86
2022/03/10 09:02:41;;;;;;;15.25;11.07;;;9.80;64.50;;;;;;4884617;29;20497;-88
2022/03/10 09:05:26;;;;;;;18.77;10.80;;;9.90;63.90;;;;;;4871815;29;20052;-87
2022/03/10 09:08:10;;;;;;;18.75;11.38;;;10.00;63.10;;;;;;4909040;29;20119;-89
2022/03/10 09:10:54;;;;;;;;;;;10.00;64.70;;;;;;4903709;29;20097;-89
2022/03/10 09:13:44;;;;;;;17.20;11.82;;;10.10;64.40;;;;;;4889197;29;19967;-89
2022/03/10 09:16:28;;;;;;;20.70;12.65;;;10.30;66.00;;;;;;4865631;29;20040;-87
2022/03/10 09:19:12;;;;;;;18.52;12.68;;;10.10;65.40;;;;;;4865560;29;20044;-88
2022/03/10 09:21:58;;;;;;;23.15;12.82;;;10.20;65.30;;;;;;4878634;29;20218;-88
2022/03/10 09:24:43;;;;;;;20.08;12.82;;;8.90;64.50;;;;;;4874532;29;20066;-89
2022/03/10 09:27:28;;;;;;;20.10;12.60;;;10.10;64.20;;;;;;4895859;29;20040;-87
2022/03/10 09:30:13;;;;;;;21.60;13.20;;;8.90;63.50;;;;;;4890227;29;20046;-89
2022/03/10 09:32:57;;;;;;;27.42;13.88;;;10.20;66.10;;;;;;4902640;29;20039;-88
2022/03/10 09:35:42;;;;;;;24.10;13.90;;;10.30;64.80;;;;;;4889191;29;20040;-89
2022/03/10 09:38:27;;;;;;;20.58;12.93;;;;;;;;;;4871137;29;20496;-89
2022/03/10 09:41:12;;;;;;;21.48;12.30;;;;;;;;;;4884482;29;20048;-88
2022/03/10 09:43:56;;;;;;;17.25;11.70;;;;;;;;;;4898126;29;20079;-86
2022/03/10 09:46:42;;;;;;;22.30;11.98;;;10.90;62.20;;;;;;4902744;29;20083;-89
2022/03/10 09:49:26;;;;;;;15.68;11.98;;;;;;;;;;4903024;29;20059;-86
2022/03/10 09:52:12;;;;;;;15.68;10.55;;;11.30;61.20;;;;;;4917377;29;20047;-87
2022/03/10 09:54:57;;;;;;;18.13;11.85;;;;;;;;;;4902317;29;20399;-86
2022/03/10 09:57:45;;;;;;;19.88;11.38;;;11.40;60.60;;;;;;4884417;29;20044;-90
2022/03/10 10:00:30;;;;;;;16.85;11.07;;;;;;;;;;4891028;29;20076;-89
2022/03/10 10:03:18;;;;;;;16.42;11.35;;;;;;;;;;4886871;29;20140;-87
2022/03/10 10:06:06;;;;;;;16.63;11.77;;;12.20;59.40;;;;;;4883369;29;20044;-89
2022/03/10 10:08:55;;;;;;;15.85;11.55;;;12.30;59.10;;;;;;4883886;29;20081;-87
2022/03/10 10:11:40;;;;;;;18.83;11.93;;;;;;;;;;4890241;29;20039;-87
2022/03/10 10:14:39;;;;;;;17.35;10.82;;;12.60;58.50;;;;;;4889554;29;20096;-89
2022/03/10 10:17:35;;;;;;;17.75;12.02;;;13.10;57.40;;;;;;4879355;29;20069;-88
2022/03/10 10:20:22;;;;;;;16.63;11.27;;;13.20;58.80;;;;;;4865405;29;20133;-89
2022/03/10 10:23:28;;;;;;;14.63;10.90;;;13.50;58.10;;;;;;4865079;29;20043;-89
2022/03/10 10:26:12;;;;;;;17.20;11.88;;;13.80;54.60;;;;;;4865268;29;20096;-90
2022/03/10 10:29:04;;;;;;;16.60;11.23;;;13.70;56.60;;;;;;4864619;29;20549;-89
2022/03/10 10:31:48;;;;;;;16.77;11.13;;;13.70;54.90;;;;;;4863801;29;20048;-87
2022/03/10 10:34:33;;;;;;;15.18;11.20;;;13.50;57.90;;;;;;4865028;29;20422;-89
2022/03/10 10:37:23;;;;;;;14.52;10.93;;;13.50;57.20;;;;;;4864963;29;20040;-88
2022/03/10 10:40:09;;;;;;;17.23;12.35;;;13.40;55.20;;;;;;4880476;29;20064;-86
2022/03/10 10:42:54;;;;;;;16.42;11.88;;;13.40;55.10;;;;;;4915333;29;20051;-88
2022/03/10 10:45:39;;;;;;;18.48;11.43;;;;;;;;;;4902025;29;20560;-87
2022/03/10 10:48:25;;;;;;;18.23;11.57;;;;;;;;;;4900677;29;20095;-88
2022/03/10 10:51:11;;;;;;;18.55;12.80;;;13.90;53.20;;;;;;4901756;29;20095;-87
2022/03/10 10:53:59;;;;;;;17.40;12.10;;;14.40;52.30;;;;;;4901895;29;20043;-87
2022/03/10 10:56:52;;;;;;;18.65;12.02;;;15.00;51.00;;;;;;4902146;29;20044;-87
2022/03/10 10:59:43;;;;;;;19.15;11.52;;;15.00;51.60;;;;;;4916389;29;20396;-85
2022/03/10 11:02:29;;;;;;;17.02;11.63;;;15.80;48.70;;;;;;4901869;29;20123;-87
2022/03/10 11:05:14;;;;;;;23.08;11.60;;;15.80;49.80;;;;;;4900903;29;20071;-84
2022/03/10 11:07:59;;;;;;;19.17;12.65;;;;;;;;;;4901285;29;20047;-87
2022/03/10 11:10:44;;;;;;;17.85;12.20;;;15.30;48.00;;;;;;4902054;29;20051;-88
2022/03/10 11:13:29;;;;;;;16.98;11.80;;;15.10;49.90;;;;;;4888574;29;20042;-87
2022/03/10 11:16:15;;;;;;;19.48;11.77;;;14.90;51.10;;;;;;4888160;29;20043;-88
2022/03/10 11:19:01;;;;;;;23.38;12.27;;;14.80;50.10;;;;;;4901099;29;20043;-87
2022/03/10 11:21:51;;;;;;;15.68;12.15;;;14.90;50.40;;;;;;4888942;29;20059;-87
2022/03/10 11:24:41;;;;;;;16.67;11.88;;;14.90;49.80;;;;;;4890694;29;20532;-88
2022/03/10 11:27:46;;;;;;;20.70;12.55;;;15.20;49.40;;;;;;4899337;29;20043;-84
2022/03/10 11:30:32;;;;;;;17.92;12.50;;;15.50;48.00;;;;;;4890051;29;20096;-86
2022/03/10 11:33:18;;;;;;;19.85;12.80;;;15.50;47.80;;;;;;4880648;29;20051;-86
2022/03/10 11:36:25;;;;;;;17.40;12.55;;;15.30;48.00;;;;;;4892980;29;20043;-86
2022/03/10 11:39:10;;;;;;;19.08;13.75;;;15.20;48.00;;;;;;4896383;29;20112;-86
2022/03/10 11:42:00;;;;;;;16.95;12.32;;;15.10;48.00;;;;;;4883226;29;20048;-88
2022/03/10 11:44:48;;;;;;;17.90;12.30;;;15.10;48.40;;;;;;4886246;29;20048;-85
2022/03/10 11:47:32;;;;;;;19.90;13.27;;;15.10;47.90;;;;;;4873329;29;20093;-86
2022/03/10 11:50:22;;;;;;;23.73;13.10;;;15.10;48.60;;;;;;4885632;29;20047;-86
2022/03/10 11:53:12;;;;;;;19.92;13.15;;;15.20;48.50;;;;;;4885529;29;20048;-86
2022/03/10 11:55:56;;;;;;;19.10;13.40;;;15.30;49.10;;;;;;4867999;29;20412;-89
2022/03/10 11:58:40;;;;;;;18.85;12.95;;;15.30;48.70;;;;;;4905658;29;20083;-84
2022/03/10 12:01:25;;;;;;;20.15;13.60;;;15.40;48.30;;;;;;4891325;29;20518;-84
2022/03/10 12:04:17;;;;;;;18.60;13.25;;;15.50;46.80;;;;;;4891068;29;20414;-86
2022/03/10 12:07:02;;;;;;;17.50;12.77;;;15.50;47.60;;;;;;4903794;29;20123;-85
2022/03/10 12:10:08;;;;;;;19.40;13.20;;;15.60;47.30;;;;;;4891400;29;20046;-85
2022/03/10 12:12:53;;;;;;;19.63;13.75;;;15.70;46.80;;;;;;4904620;29;20103;-86
2022/03/10 12:15:39;;;;;;;20.73;13.73;;;15.70;47.10;;;;;;4904518;29;20092;-85
2022/03/10 12:18:29;;;;;;;21.80;13.30;;;15.80;46.30;;;;;;4853769;29;20048;-85
2022/03/10 12:21:30;;;;;;;18.15;13.35;;;15.80;45.50;;;;;;4880548;29;20051;-86
2022/03/10 12:24:14;;;;;;;19.83;13.52;;;15.90;45.80;;;;;;4882356;29;20461;-86
2022/03/10 12:27:02;;;;;;;19.17;13.30;;;15.90;45.00;;;;;;4866282;29;20091;-86
2022/03/10 12:29:49;;;;;;;20.48;12.95;;;15.90;44.80;;;;;;4918610;29;20409;-86
2022/03/10 12:32:38;;;;;;;18.80;13.15;;;15.90;45.10;;;;;;4903805;29;20111;-85
2022/03/10 12:35:28;;;;;;;17.67;12.93;;;15.90;45.10;;;;;;4917782;29;20106;-85
2022/03/10 12:38:13;;;;;;;24.20;13.35;;;16.00;45.00;;;;;;4916991;29;20088;-83
2022/03/10 12:40:57;;;;;;;19.85;13.25;;;16.00;44.70;;;;;;4890796;29;20058;-86
2022/03/10 12:43:42;;;;;;;18.67;12.25;;;16.10;44.90;;;;;;4877898;29;20059;-86
2022/03/10 12:46:26;;;;;;;18.67;13.15;;;16.20;44.90;;;;;;4877073;29;20051;-86
2022/03/10 12:49:37;;;;;;;16.85;12.68;;;16.20;44.90;;;;;;4903233;29;20118;-86
2022/03/10 12:52:27;;;;;;;18.35;13.38;;;16.30;45.10;;;;;;4917409;29;20078;-85
2022/03/10 12:55:11;;;;;;;19.27;12.52;;;16.40;45.20;;;;;;4902522;29;20038;-86
2022/03/10 12:57:59;;;;;;;20.92;12.50;;;16.50;45.20;;;;;;4890616;29;20062;-85
2022/03/10 13:00:43;;;;;;;19.38;13.35;;;16.50;45.00;;;;;;4890251;29;20460;-86
2022/03/10 13:03:27;;;;;;;22.75;13.38;;;16.60;45.20;;;;;;4889776;29;20076;-86
2022/03/10 13:06:12;;;;;;;17.67;11.70;;;16.60;44.90;;;;;;4889758;29;20052;-86
2022/03/10 13:08:58;;;;;;;18.10;12.88;;;16.60;44.70;;;;;;4903523;29;20072;-86
2022/03/10 13:11:42;;;;;;;17.83;12.52;;;16.70;45.00;;;;;;4903429;29;20096;-86
2022/03/10 13:14:29;;;;;;;18.70;12.50;;;16.80;44.50;;;;;;4889519;29;20063;-85
2022/03/10 13:17:13;;;;;;;19.80;12.82;;;16.70;44.40;;;;;;4916969;29;20552;-83
2022/03/10 13:19:57;;;;;;;18.27;12.25;;;16.70;45.70;;;;;;4902371;29;20043;-85
2022/03/10 13:22:53;;;;;;;19.00;12.93;;;16.80;45.30;;;;;;4902927;29;20073;-86
2022/03/10 13:25:39;;;;;;;20.75;12.93;;;16.80;44.80;;;;;;4906044;29;20031;-86
2022/03/10 13:28:26;;;;;;;18.50;12.63;;;16.70;45.60;;;;;;4899634;29;20075;-87
2022/03/10 13:31:11;;;;;;;20.63;13.20;;;16.80;46.60;;;;;;4902446;29;20071;-87
2022/03/10 13:33:58;;;;;;;22.45;13.95;;;16.80;45.80;;;;;;4886794;29;20042;-87
2022/03/10 13:36:43;;;;;;;20.63;13.18;;;16.90;45.40;;;;;;4913386;29;20043;-86
2022/03/10 13:39:30;;;;;;;19.27;13.80;;;17.00;45.60;;;;;;4901397;29;20275;-87
2022/03/10 13:42:44;;;;;;;18.83;12.52;;;16.90;45.30;;;;;;4881799;29;20128;-85
2022/03/10 13:45:39;;;;;;;16.70;12.00;;;17.00;44.70;;;;;;4907044;29;20078;-87
2022/03/10 13:48:25;;;;;;;24.45;12.88;;;16.90;45.00;;;;;;4896640;29;20092;-85
2022/03/10 13:51:10;;;;;;;20.83;12.98;;;16.90;45.00;;;;;;4883941;29;20043;-89
2022/03/10 13:53:57;;;;;;;17.90;12.90;;;16.90;45.10;;;;;;4870640;29;20048;-86
2022/03/10 13:56:44;;;;;;;20.15;13.02;;;17.00;44.60;;;;;;4896673;29;20524;-86
2022/03/10 13:59:30;;;;;;;20.67;12.75;;;16.90;44.20;;;;;;4895379;29;20031;-86
2022/03/10 14:02:26;;;;;;;22.10;13.57;;;16.90;45.00;;;;;;4883264;29;20100;-85
2022/03/10 14:05:14;;;;;;;21.95;12.85;;;16.90;44.00;;;;;;4879067;29;20100;-85
2022/03/10 14:08:20;;;;;;;19.77;13.02;;;16.90;45.70;;;;;;4852522;29;20044;-86
2022/03/10 14:11:08;;;;;;;19.40;12.82;;;16.90;45.00;;;;;;4865057;29;20132;-86
2022/03/10 14:14:00;;;;;;;22.70;13.98;;;16.90;45.00;;;;;;4865192;29;20057;-86
2022/03/10 14:16:55;;;;;;;20.93;13.57;;;16.90;44.50;;;;;;4907008;29;20043;-86
2022/03/10 14:19:42;;;;;;;19.58;13.30;;;16.90;44.50;;;;;;4883291;29;20623;-85
2022/03/10 14:22:29;;;;;;;26.13;12.82;;;16.90;45.00;;;;;;4870194;29;20051;-86
2022/03/10 14:25:16;;;;;;;20.02;14.02;;;16.90;44.40;;;;;;4883658;29;20405;-89
2022/03/10 14:28:07;;;;;;;21.60;13.90;;;15.90;44.00;;;;;;4870540;29;20453;-85
2022/03/10 14:30:52;;;;;;;21.70;13.27;;;16.80;43.80;;;;;;4883497;29;20116;-85
2022/03/10 14:33:37;;;;;;;22.40;14.18;;;16.80;43.70;;;;;;4869756;29;20051;-83
2022/03/10 14:36:23;;;;;;;20.10;13.07;;;16.70;43.30;;;;;;4869553;29;20092;-85
2022/03/10 14:39:09;;;;;;;19.48;13.15;;;16.70;43.10;;;;;;4883076;29;20108;-85
2022/03/10 14:41:53;;;;;;;21.30;13.57;;;16.60;43.40;;;;;;4896903;29;20123;-84
2022/03/10 14:44:37;;;;;;;21.38;13.20;;;16.60;43.20;;;;;;4851124;29;20044;-85